sensor_id;sensor_type;location;lat;lon;timestamp;pressure;altitude;pressure_sealevel;temperature;humidity
56330;BME280;42236;48.058;10.632;2024-02-23T00:00:58;92820.78;;;6.09;100.00
56330;BME280;42236;48.058;10.632;2024-02-23T00:03:44;92824.59;;;6.08;100.00
56330;BME280;42236;48.058;10.632;2024-02-23T00:06:30;92815.03;;;6.07;100.00
56330;BME280;42236;48.058;10.632;2024-02-23T00:09:15;92827.25;;;6.04;100.00
56330;BME280;42236;48.058;10.632;2024-02-23T00:12:01;92844.06;;;6.05;100.00
56330;BME280;42236;48.058;10.632;2024-02-23T00:14:47;92831.38;;;6.02;100.00
56330;BME280;42236;48.058;10.632;2024-02-23T00:17:33;92825.63;;;6.00;100.00
56330;BME280;42236;48.058;10.632;2024-02-23T00:20:19;92820.56;;;5.94;100.00
56330;BME280;42236;48.058;10.632;2024-02-23T00:23:05;92823.91;;;5.91;100.00
56330;BME280;42236;48.058;10.632;2024-02-23T00:25:57;92812.44;;;5.91;100.00
56330;BME280;42236;48.058;10.632;2024-02-23T00:28:43;92816.59;;;5.88;100.00
56330;BME280;42236;48.058;10.632;2024-02-23T00:31:28;92819.28;;;5.88;100.00
56330;BME280;42236;48.058;10.632;2024-02-23T00:34:14;92814.63;;;5.85;100.00
56330;BME280;42236;48.058;10.632;2024-02-23T00:37:00;92827.59;;;5.83;100.00
56330;BME280;42236;48.058;10.632;2024-02-23T00:39:46;92836.38;;;5.84;100.00
56330;BME280;42236;48.058;10.632;2024-02-23T00:42:31;92843.22;;;5.81;100.00
56330;BME280;42236;48.058;10.632;2024-02-23T00:45:17;92838.16;;;5.76;100.00
56330;BME280;42236;48.058;10.632;2024-02-23T00:48:03;92859.91;;;5.74;100.00
56330;BME280;42236;48.058;10.632;2024-02-23T00:50:49;92862.44;;;5.67;100.00
56330;BME280;42236;48.058;10.632;2024-02-23T00:53:35;92890.69;;;5.65;100.00
56330;BME280;42236;48.058;10.632;2024-02-23T00:56:24;92866.88;;;5.60;100.00
56330;BME280;42236;48.058;10.632;2024-02-23T00:59:10;92869.00;;;5.50;100.00
56330;BME280;42236;48.058;10.632;2024-02-23T01:01:56;92870.84;;;5.46;100.00
56330;BME280;42236;48.058;10.632;2024-02-23T01:04:42;92860.41;;;5.41;100.00
56330;BME280;42236;48.058;10.632;2024-02-23T01:07:28;92862.97;;;5.34;100.00
56330;BME280;42236;48.058;10.632;2024-02-23T01:10:14;92882.44;;;5.34;100.00
56330;BME280;42236;48.058;10.632;2024-02-23T01:13:00;92873.22;;;5.32;100.00
56330;BME280;42236;48.058;10.632;2024-02-23T01:15:46;92876.19;;;5.27;100.00
56330;BME280;42236;48.058;10.632;2024-02-23T01:18:31;92897.13;;;5.25;100.00
56330;BME280;42236;48.058;10.632;2024-02-23T01:21:17;92898.25;;;5.24;100.00
56330;BME280;42236;48.058;10.632;2024-02-23T01:24:04;92900.56;;;5.25;100.00
56330;BME280;42236;48.058;10.632;2024-02-23T01:26:49;92903.97;;;5.22;100.00
56330;BME280;42236;48.058;10.632;2024-02-23T01:29:35;92921.09;;;5.21;100.00
56330;BME280;42236;48.058;10.632;2024-02-23T01:32:22;92904.22;;;5.17;100.00
56330;BME280;42236;48.058;10.632;2024-02-23T01:35:08;92904.56;;;5.16;100.00
56330;BME280;42236;48.058;10.632;2024-02-23T01:37:54;92912.59;;;5.16;100.00
56330;BME280;42236;48.058;10.632;2024-02-23T01:40:39;92909.47;;;5.13;100.00
56330;BME280;42236;48.058;10.632;2024-02-23T01:43:25;92902.59;;;5.12;100.00
56330;BME280;42236;48.058;10.632;2024-02-23T01:46:11;92904.84;;;5.10;100.00
56330;BME280;42236;48.058;10.632;2024-02-23T01:48:57;92907.09;;;5.08;100.00
56330;BME280;42236;48.058;10.632;2024-02-23T01:51:43;92911.72;;;5.11;100.00
56330;BME280;42236;48.058;10.632;2024-02-23T01:54:29;92896.81;;;5.10;100.00
56330;BME280;42236;48.058;10.632;2024-02-23T01:57:16;92912.50;;;5.12;100.00
56330;BME280;42236;48.058;10.632;2024-02-23T02:00:02;92917.06;;;5.11;100.00
56330;BME280;42236;48.058;10.632;2024-02-23T02:02:48;92914.81;;;5.13;100.00
56330;BME280;42236;48.058;10.632;2024-02-23T02:05:36;92926.72;;;5.16;100.00
56330;BME280;42236;48.058;10.632;2024-02-23T02:08:23;92922.16;;;5.17;100.00
56330;BME280;42236;48.058;10.632;2024-02-23T02:11:09;92932.41;;;5.14;100.00
56330;BME280;42236;48.058;10.632;2024-02-23T02:13:55;92937.84;;;5.18;100.00
56330;BME280;42236;48.058;10.632;2024-02-23T02:16:41;92934.03;;;5.19;100.00
56330;BME280;42236;48.058;10.632;2024-02-23T02:19:26;92943.97;;;5.19;100.00
56330;BME280;42236;48.058;10.632;2024-02-23T02:22:12;92943.91;;;5.15;100.00
56330;BME280;42236;48.058;10.632;2024-02-23T02:24:58;92945.88;;;5.18;100.00
56330;BME280;42236;48.058;10.632;2024-02-23T02:27:44;92953.13;;;5.18;100.00
56330;BME280;42236;48.058;10.632;2024-02-23T02:30:30;92961.56;;;5.20;100.00
56330;BME280;42236;48.058;10.632;2024-02-23T02:33:16;92956.22;;;5.20;100.00
56330;BME280;42236;48.058;10.632;2024-02-23T02:36:02;92963.81;;;5.18;99.60
56330;BME280;42236;48.058;10.632;2024-02-23T02:38:48;92969.06;;;5.14;100.00
56330;BME280;42236;48.058;10.632;2024-02-23T02:41:33;92969.16;;;5.18;100.00
56330;BME280;42236;48.058;10.632;2024-02-23T02:44:19;92968.78;;;5.19;100.00
56330;BME280;42236;48.058;10.632;2024-02-23T02:47:05;92971.47;;;5.19;100.00
56330;BME280;42236;48.058;10.632;2024-02-23T02:49:51;92963.66;;;5.10;100.00
56330;BME280;42236;48.058;10.632;2024-02-23T02:52:37;92972.19;;;5.00;100.00
56330;BME280;42236;48.058;10.632;2024-02-23T02:55:22;92962.00;;;4.90;100.00
56330;BME280;42236;48.058;10.632;2024-02-23T02:58:09;92969.59;;;4.88;100.00
56330;BME280;42236;48.058;10.632;2024-02-23T03:00:55;92967.59;;;4.85;100.00
56330;BME280;42236;48.058;10.632;2024-02-23T03:03:40;92975.44;;;4.78;100.00
56330;BME280;42236;48.058;10.632;2024-02-23T03:06:26;92971.56;;;4.75;100.00
56330;BME280;42236;48.058;10.632;2024-02-23T03:09:12;92977.28;;;4.74;100.00
56330;BME280;42236;48.058;10.632;2024-02-23T03:11:57;92978.81;;;4.75;100.00
56330;BME280;42236;48.058;10.632;2024-02-23T03:14:44;92985.13;;;4.66;100.00
56330;BME280;42236;48.058;10.632;2024-02-23T03:17:29;92982.16;;;4.56;100.00
56330;BME280;42236;48.058;10.632;2024-02-23T03:20:15;92972.88;;;4.49;100.00
56330;BME280;42236;48.058;10.632;2024-02-23T03:23:01;92973.25;;;4.36;100.00
56330;BME280;42236;48.058;10.632;2024-02-23T03:25:49;92972.00;;;4.17;100.00
56330;BME280;42236;48.058;10.632;2024-02-23T03:28:34;92982.28;;;4.03;100.00
56330;BME280;42236;48.058;10.632;2024-02-23T03:31:20;92968.31;;;3.94;100.00
56330;BME280;42236;48.058;10.632;2024-02-23T03:34:06;92966.78;;;3.93;100.00
56330;BME280;42236;48.058;10.632;2024-02-23T03:36:53;92963.88;;;3.98;100.00
56330;BME280;42236;48.058;10.632;2024-02-23T03:39:38;92964.75;;;4.02;100.00
56330;BME280;42236;48.058;10.632;2024-02-23T03:42:25;92970.53;;;4.04;100.00
56330;BME280;42236;48.058;10.632;2024-02-23T03:45:10;92977.06;;;4.06;100.00
56330;BME280;42236;48.058;10.632;2024-02-23T03:47:56;92986.63;;;4.07;100.00
56330;BME280;42236;48.058;10.632;2024-02-23T03:50:42;92983.94;;;4.07;100.00
56330;BME280;42236;48.058;10.632;2024-02-23T03:53:27;92972.50;;;4.07;100.00
56330;BME280;42236;48.058;10.632;2024-02-23T03:56:13;92970.28;;;4.09;100.00
56330;BME280;42236;48.058;10.632;2024-02-23T03:58:59;92978.47;;;4.16;100.00
56330;BME280;42236;48.058;10.632;2024-02-23T04:01:44;92976.66;;;4.20;100.00
56330;BME280;42236;48.058;10.632;2024-02-23T04:04:30;92980.66;;;4.26;100.00
56330;BME280;42236;48.058;10.632;2024-02-23T04:07:16;92975.81;;;4.32;100.00
56330;BME280;42236;48.058;10.632;2024-02-23T04:10:01;92971.03;;;4.38;100.00
56330;BME280;42236;48.058;10.632;2024-02-23T04:12:47;92970.34;;;4.41;100.00
56330;BME280;42236;48.058;10.632;2024-02-23T04:15:33;92968.00;;;4.39;100.00
56330;BME280;42236;48.058;10.632;2024-02-23T04:18:18;92958.91;;;4.40;100.00
56330;BME280;42236;48.058;10.632;2024-02-23T04:21:04;92968.88;;;4.43;100.00
56330;BME280;42236;48.058;10.632;2024-02-23T04:23:50;92970.34;;;4.41;100.00
56330;BME280;42236;48.058;10.632;2024-02-23T04:26:35;92977.59;;;4.40;100.00
56330;BME280;42236;48.058;10.632;2024-02-23T04:29:21;92974.91;;;4.40;100.00
56330;BME280;42236;48.058;10.632;2024-02-23T04:32:07;92960.34;;;4.38;100.00
56330;BME280;42236;48.058;10.632;2024-02-23T04:34:52;92960.34;;;4.38;100.00
56330;BME280;42236;48.058;10.632;2024-02-23T04:37:38;92966.47;;;4.38;100.00
56330;BME280;42236;48.058;10.632;2024-02-23T04:40:24;92964.22;;;4.40;100.00
56330;BME280;42236;48.058;10.632;2024-02-23T04:43:10;92979.47;;;4.40;100.00
56330;BME280;42236;48.058;10.632;2024-02-23T04:45:55;92986.94;;;4.34;100.00
56330;BME280;42236;48.058;10.632;2024-02-23T04:48:41;92984.44;;;4.25;100.00
56330;BME280;42236;48.058;10.632;2024-02-23T04:51:27;92974.34;;;4.19;100.00
56330;BME280;42236;48.058;10.632;2024-02-23T04:54:13;92970.47;;;4.16;100.00
56330;BME280;42236;48.058;10.632;2024-02-23T04:56:58;92972.00;;;4.17;100.00
56330;BME280;42236;48.058;10.632;2024-02-23T04:59:44;92975.13;;;4.19;100.00
56330;BME280;42236;48.058;10.632;2024-02-23T05:02:30;92979.69;;;4.19;100.00
56330;BME280;42236;48.058;10.632;2024-02-23T05:05:20;92985.34;;;4.17;100.00
56330;BME280;42236;48.058;10.632;2024-02-23T05:08:07;92981.59;;;4.18;100.00
56330;BME280;42236;48.058;10.632;2024-02-23T05:10:53;92974.25;;;4.15;100.00
56330;BME280;42236;48.058;10.632;2024-02-23T05:13:38;92979.16;;;4.13;100.00
56330;BME280;42236;48.058;10.632;2024-02-23T05:16:27;92986.72;;;4.11;100.00
56330;BME280;42236;48.058;10.632;2024-02-23T05:19:12;92986.72;;;4.11;100.00
56330;BME280;42236;48.058;10.632;2024-02-23T05:21:58;92988.97;;;4.09;100.00
56330;BME280;42236;48.058;10.632;2024-02-23T05:24:44;92992.72;;;4.08;100.00
56330;BME280;42236;48.058;10.632;2024-02-23T05:27:30;93002.97;;;4.06;100.00
56330;BME280;42236;48.058;10.632;2024-02-23T05:30:16;93009.75;;;4.03;100.00
56330;BME280;42236;48.058;10.632;2024-02-23T05:33:02;93005.22;;;4.04;100.00
56330;BME280;42236;48.058;10.632;2024-02-23T05:35:48;93001.22;;;3.98;100.00
56330;BME280;42236;48.058;10.632;2024-02-23T05:38:34;93004.13;;;3.93;100.00
56330;BME280;42236;48.058;10.632;2024-02-23T05:41:20;93001.00;;;3.91;100.00
56330;BME280;42236;48.058;10.632;2024-02-23T05:44:05;93004.81;;;3.90;100.00
56330;BME280;42236;48.058;10.632;2024-02-23T05:46:51;93013.59;;;3.90;100.00
56330;BME280;42236;48.058;10.632;2024-02-23T05:49:37;93016.13;;;3.87;100.00
56330;BME280;42236;48.058;10.632;2024-02-23T05:52:23;93011.94;;;3.85;100.00
56330;BME280;42236;48.058;10.632;2024-02-23T05:55:08;93015.28;;;3.82;100.00
56330;BME280;42236;48.058;10.632;2024-02-23T05:57:54;93010.72;;;3.83;100.00
56330;BME280;42236;48.058;10.632;2024-02-23T06:00:40;93011.47;;;3.83;100.00
56330;BME280;42236;48.058;10.632;2024-02-23T06:03:25;93004.59;;;3.82;100.00
56330;BME280;42236;48.058;10.632;2024-02-23T06:06:11;93001.59;;;3.84;100.00
56330;BME280;42236;48.058;10.632;2024-02-23T06:08:57;93005.72;;;3.81;100.00
56330;BME280;42236;48.058;10.632;2024-02-23T06:11:42;93007.28;;;3.82;100.00
56330;BME280;42236;48.058;10.632;2024-02-23T06:14:28;93012.16;;;3.80;100.00
56330;BME280;42236;48.058;10.632;2024-02-23T06:17:14;93008.28;;;3.78;100.00
56330;BME280;42236;48.058;10.632;2024-02-23T06:20:00;93010.19;;;3.77;100.00
56330;BME280;42236;48.058;10.632;2024-02-23T06:22:46;93011.28;;;3.76;100.00
56330;BME280;42236;48.058;10.632;2024-02-23T06:25:31;93006.72;;;3.77;100.00
56330;BME280;42236;48.058;10.632;2024-02-23T06:28:17;93009.06;;;3.78;100.00
56330;BME280;42236;48.058;10.632;2024-02-23T06:31:04;93015.97;;;3.79;100.00
56330;BME280;42236;48.058;10.632;2024-02-23T06:33:50;93011.03;;;3.81;100.00
56330;BME280;42236;48.058;10.632;2024-02-23T06:36:37;93017.19;;;3.82;100.00
56330;BME280;42236;48.058;10.632;2024-02-23T06:39:22;93020.94;;;3.81;100.00
56330;BME280;42236;48.058;10.632;2024-02-23T06:42:08;93015.16;;;3.79;100.00
56330;BME280;42236;48.058;10.632;2024-02-23T06:44:54;93016.28;;;3.78;100.00
56330;BME280;42236;48.058;10.632;2024-02-23T06:47:39;93016.63;;;3.76;100.00
56330;BME280;42236;48.058;10.632;2024-02-23T06:50:26;93019.19;;;3.73;100.00
56330;BME280;42236;48.058;10.632;2024-02-23T06:53:12;93045.19;;;3.76;100.00
56330;BME280;42236;48.058;10.632;2024-02-23T06:55:58;93050.63;;;3.79;100.00
56330;BME280;42236;48.058;10.632;2024-02-23T06:58:44;93041.50;;;3.80;100.00
56330;BME280;42236;48.058;10.632;2024-02-23T07:01:31;93042.19;;;3.77;100.00
56330;BME280;42236;48.058;10.632;2024-02-23T07:04:17;93040.97;;;3.75;100.00
56330;BME280;42236;48.058;10.632;2024-02-23T07:07:02;93037.09;;;3.72;100.00
56330;BME280;42236;48.058;10.632;2024-02-23T07:09:52;93045.84;;;3.73;100.00
56330;BME280;42236;48.058;10.632;2024-02-23T07:12:40;93040.16;;;3.74;100.00
56330;BME280;42236;48.058;10.632;2024-02-23T07:15:26;93030.72;;;3.77;100.00
56330;BME280;42236;48.058;10.632;2024-02-23T07:18:12;93028.16;;;3.80;100.00
56330;BME280;42236;48.058;10.632;2024-02-23T07:20:57;93035.03;;;3.81;100.00
56330;BME280;42236;48.058;10.632;2024-02-23T07:23:43;93038.50;;;3.82;100.00
56330;BME280;42236;48.058;10.632;2024-02-23T07:26:29;93031.28;;;3.82;100.00
56330;BME280;42236;48.058;10.632;2024-02-23T07:29:14;93029.72;;;3.81;100.00
56330;BME280;42236;48.058;10.632;2024-02-23T07:32:00;93019.94;;;3.85;100.00
56330;BME280;42236;48.058;10.632;2024-02-23T07:34:46;93024.50;;;3.85;100.00
56330;BME280;42236;48.058;10.632;2024-02-23T07:37:31;93019.25;;;3.89;100.00
56330;BME280;42236;48.058;10.632;2024-02-23T07:40:17;93031.56;;;3.93;100.00
56330;BME280;42236;48.058;10.632;2024-02-23T07:43:03;93025.47;;;3.93;100.00
56330;BME280;42236;48.058;10.632;2024-02-23T07:45:48;93020.91;;;3.93;100.00
56330;BME280;42236;48.058;10.632;2024-02-23T07:48:35;93024.78;;;3.96;100.00
56330;BME280;42236;48.058;10.632;2024-02-23T07:51:21;93004.31;;;4.00;100.00
56330;BME280;42236;48.058;10.632;2024-02-23T07:54:06;93001.41;;;4.05;100.00
56330;BME280;42236;48.058;10.632;2024-02-23T07:56:52;93008.06;;;4.11;100.00
56330;BME280;42236;48.058;10.632;2024-02-23T07:59:38;93052.06;;;4.17;100.00
56330;BME280;42236;48.058;10.632;2024-02-23T08:02:23;93036.06;;;4.17;99.43
56330;BME280;42236;48.058;10.632;2024-02-23T08:05:09;93031.59;;;4.21;100.00
56330;BME280;42236;48.058;10.632;2024-02-23T08:07:55;93037.81;;;4.25;100.00
56330;BME280;42236;48.058;10.632;2024-02-23T08:10:41;93041.72;;;4.28;99.93
56330;BME280;42236;48.058;10.632;2024-02-23T08:13:27;93047.13;;;4.32;99.95
56330;BME280;42236;48.058;10.632;2024-02-23T08:16:12;93041.91;;;4.35;100.00
56330;BME280;42236;48.058;10.632;2024-02-23T08:18:58;93038.22;;;4.40;100.00
56330;BME280;42236;48.058;10.632;2024-02-23T08:21:44;93044.41;;;4.44;99.59
56330;BME280;42236;48.058;10.632;2024-02-23T08:24:30;93058.97;;;4.46;99.31
56330;BME280;42236;48.058;10.632;2024-02-23T08:27:15;93064.22;;;4.43;99.66
56330;BME280;42236;48.058;10.632;2024-02-23T08:30:01;93066.53;;;4.44;98.98
56330;BME280;42236;48.058;10.632;2024-02-23T08:32:47;93068.09;;;4.45;98.58
56330;BME280;42236;48.058;10.632;2024-02-23T08:35:32;93069.66;;;4.46;98.53
56330;BME280;42236;48.058;10.632;2024-02-23T08:38:18;93075.78;;;4.47;98.46
56330;BME280;42236;48.058;10.632;2024-02-23T08:41:04;93074.41;;;4.53;98.29
56330;BME280;42236;48.058;10.632;2024-02-23T08:43:50;93070.19;;;4.52;97.80
56330;BME280;42236;48.058;10.632;2024-02-23T08:46:35;93071.66;;;4.49;98.29
56330;BME280;42236;48.058;10.632;2024-02-23T08:49:24;93076.63;;;4.51;98.35
56330;BME280;42236;48.058;10.632;2024-02-23T08:52:10;93081.53;;;4.49;97.35
56330;BME280;42236;48.058;10.632;2024-02-23T08:54:56;93087.13;;;4.44;97.41
56330;BME280;42236;48.058;10.632;2024-02-23T08:57:41;93094.03;;;4.45;97.11
56330;BME280;42236;48.058;10.632;2024-02-23T09:00:27;93101.03;;;4.49;97.74
56330;BME280;42236;48.058;10.632;2024-02-23T09:03:13;93089.66;;;4.53;96.85
56330;BME280;42236;48.058;10.632;2024-02-23T09:05:59;93075.28;;;4.57;96.79
56330;BME280;42236;48.058;10.632;2024-02-23T09:08:45;93075.94;;;4.54;96.01
56330;BME280;42236;48.058;10.632;2024-02-23T09:11:31;93071.41;;;4.55;95.57
56330;BME280;42236;48.058;10.632;2024-02-23T09:14:17;93083.31;;;4.57;96.44
56330;BME280;42236;48.058;10.632;2024-02-23T09:17:03;93086.41;;;4.59;95.73
56330;BME280;42236;48.058;10.632;2024-02-23T09:19:49;93088.28;;;4.59;95.27
56330;BME280;42236;48.058;10.632;2024-02-23T09:22:35;93106.31;;;4.62;95.51
56330;BME280;42236;48.058;10.632;2024-02-23T09:25:22;93094.94;;;4.65;95.81
56330;BME280;42236;48.058;10.632;2024-02-23T09:28:08;93099.03;;;4.75;95.52
56330;BME280;42236;48.058;10.632;2024-02-23T09:30:56;93088.19;;;4.83;95.21
56330;BME280;42236;48.058;10.632;2024-02-23T09:33:42;93095.59;;;4.90;95.03
56330;BME280;42236;48.058;10.632;2024-02-23T09:36:32;93103.63;;;4.90;94.57
56330;BME280;42236;48.058;10.632;2024-02-23T09:39:17;93103.03;;;4.97;95.87
56330;BME280;42236;48.058;10.632;2024-02-23T09:42:07;93090.97;;;5.03;95.13
56330;BME280;42236;48.058;10.632;2024-02-23T09:44:58;93098.56;;;5.01;94.52
56330;BME280;42236;48.058;10.632;2024-02-23T09:47:48;93102.44;;;5.03;94.69
56330;BME280;42236;48.058;10.632;2024-02-23T09:50:40;93110.91;;;5.05;94.37
56330;BME280;42236;48.058;10.632;2024-02-23T09:53:26;93103.31;;;5.07;94.85
56330;BME280;42236;48.058;10.632;2024-02-23T09:56:21;93101.16;;;5.13;94.83
56330;BME280;42236;48.058;10.632;2024-02-23T09:59:14;93094.09;;;5.21;95.36
56330;BME280;42236;48.058;10.632;2024-02-23T10:01:59;93103.41;;;5.27;93.93
56330;BME280;42236;48.058;10.632;2024-02-23T10:04:46;93096.34;;;5.34;94.54
56330;BME280;42236;48.058;10.632;2024-02-23T10:07:34;93102.63;;;5.42;94.46
56330;BME280;42236;48.058;10.632;2024-02-23T10:10:33;93108.16;;;5.49;93.86
56330;BME280;42236;48.058;10.632;2024-02-23T10:13:20;93102.09;;;5.52;94.21
56330;BME280;42236;48.058;10.632;2024-02-23T10:16:21;93103.69;;;5.53;93.96
56330;BME280;42236;48.058;10.632;2024-02-23T10:19:39;93099.00;;;5.50;91.80
56330;BME280;42236;48.058;10.632;2024-02-23T10:22:30;93092.13;;;5.49;93.40
56330;BME280;42236;48.058;10.632;2024-02-23T10:25:17;93099.97;;;5.42;94.78
56330;BME280;42236;48.058;10.632;2024-02-23T10:28:06;93103.75;;;5.25;94.51
56330;BME280;42236;48.058;10.632;2024-02-23T10:30:55;93108.16;;;5.18;95.38
56330;BME280;42236;48.058;10.632;2024-02-23T10:33:47;93114.16;;;5.14;95.41
56330;BME280;42236;48.058;10.632;2024-02-23T10:36:36;93107.47;;;5.21;95.33
56330;BME280;42236;48.058;10.632;2024-02-23T10:39:29;93098.59;;;5.32;95.16
56330;BME280;42236;48.058;10.632;2024-02-23T10:42:22;93096.16;;;5.43;95.07
56330;BME280;42236;48.058;10.632;2024-02-23T10:45:24;93087.97;;;5.52;94.82
56330;BME280;42236;48.058;10.632;2024-02-23T10:48:17;93090.72;;;5.55;94.69
56330;BME280;42236;48.058;10.632;2024-02-23T10:51:07;93094.53;;;5.54;93.71
56330;BME280;42236;48.058;10.632;2024-02-23T10:53:53;93096.06;;;5.55;94.62
56330;BME280;42236;48.058;10.632;2024-02-23T10:56:39;93090.72;;;5.55;94.35
56330;BME280;42236;48.058;10.632;2024-02-23T10:59:26;93094.53;;;5.54;94.14
56330;BME280;42236;48.058;10.632;2024-02-23T11:02:17;93089.16;;;5.54;95.16
56330;BME280;42236;48.058;10.632;2024-02-23T11:05:06;93094.53;;;5.54;94.15
56330;BME280;42236;48.058;10.632;2024-02-23T11:08:00;93086.06;;;5.52;93.87
56330;BME280;42236;48.058;10.632;2024-02-23T11:10:50;93076.94;;;5.53;93.34
56330;BME280;42236;48.058;10.632;2024-02-23T11:13:39;93066.56;;;5.52;93.44
56330;BME280;42236;48.058;10.632;2024-02-23T11:16:25;93081.91;;;5.55;93.68
56330;BME280;42236;48.058;10.632;2024-02-23T11:19:11;93089.94;;;5.55;93.83
56330;BME280;42236;48.058;10.632;2024-02-23T11:21:58;93086.84;;;5.53;93.41
56330;BME280;42236;48.058;10.632;2024-02-23T11:24:44;93086.50;;;5.54;93.71
56330;BME280;42236;48.058;10.632;2024-02-23T11:27:39;93092.28;;;5.56;94.23
56330;BME280;42236;48.058;10.632;2024-02-23T11:30:28;93087.81;;;5.61;93.88
56330;BME280;42236;48.058;10.632;2024-02-23T11:33:26;93087.09;;;5.64;93.32
56330;BME280;42236;48.058;10.632;2024-02-23T11:36:12;93081.75;;;5.64;93.87
56330;BME280;42236;48.058;10.632;2024-02-23T11:38:59;93083.22;;;5.61;93.15
56330;BME280;42236;48.058;10.632;2024-02-23T11:41:48;93080.13;;;5.59;93.57
56330;BME280;42236;48.058;10.632;2024-02-23T11:44:35;93078.97;;;5.60;94.04
56330;BME280;42236;48.058;10.632;2024-02-23T11:47:20;93067.78;;;5.54;93.46
56330;BME280;42236;48.058;10.632;2024-02-23T11:50:08;93068.63;;;5.59;93.96
56330;BME280;42236;48.058;10.632;2024-02-23T11:52:54;93051.13;;;5.61;93.67
56330;BME280;42236;48.058;10.632;2024-02-23T11:55:40;93047.16;;;5.55;92.37
56330;BME280;42236;48.058;10.632;2024-02-23T11:58:26;93042.16;;;5.53;92.56
56330;BME280;42236;48.058;10.632;2024-02-23T12:01:12;93050.34;;;5.61;94.00
56330;BME280;42236;48.058;10.632;2024-02-23T12:03:58;93045.84;;;5.65;92.98
56330;BME280;42236;48.058;10.632;2024-02-23T12:06:44;93053.09;;;5.64;91.64
56330;BME280;42236;48.058;10.632;2024-02-23T12:09:31;93054.84;;;5.56;90.66
56330;BME280;42236;48.058;10.632;2024-02-23T12:12:17;93056.75;;;5.56;91.81
56330;BME280;42236;48.058;10.632;2024-02-23T12:15:03;93051.03;;;5.57;91.96
56330;BME280;42236;48.058;10.632;2024-02-23T12:17:49;93049.56;;;5.60;92.48
56330;BME280;42236;48.058;10.632;2024-02-23T12:20:35;93056.09;;;5.63;91.32
56330;BME280;42236;48.058;10.632;2024-02-23T12:23:21;93046.59;;;5.65;90.64
56330;BME280;42236;48.058;10.632;2024-02-23T12:26:08;93044.28;;;5.64;91.39
56330;BME280;42236;48.058;10.632;2024-02-23T12:29:03;93041.97;;;5.62;90.37
56330;BME280;42236;48.058;10.632;2024-02-23T12:31:48;93033.31;;;5.69;91.37
56330;BME280;42236;48.058;10.632;2024-02-23T12:34:34;93036.88;;;5.73;91.25
56330;BME280;42236;48.058;10.632;2024-02-23T12:37:22;93037.63;;;5.73;89.78
56330;BME280;42236;48.058;10.632;2024-02-23T12:40:14;93038.41;;;5.74;87.73
56330;BME280;42236;48.058;10.632;2024-02-23T12:43:06;93045.16;;;5.68;89.04
56330;BME280;42236;48.058;10.632;2024-02-23T12:45:56;93049.72;;;5.67;88.64
56330;BME280;42236;48.058;10.632;2024-02-23T12:48:42;93047.56;;;5.73;89.06
56330;BME280;42236;48.058;10.632;2024-02-23T12:51:28;93048.41;;;5.77;88.89
56330;BME280;42236;48.058;10.632;2024-02-23T12:54:16;93040.47;;;5.81;89.18
56330;BME280;42236;48.058;10.632;2024-02-23T12:57:02;93036.66;;;5.82;87.98
56330;BME280;42236;48.058;10.632;2024-02-23T12:59:48;93045.53;;;5.86;88.74
56330;BME280;42236;48.058;10.632;2024-02-23T13:02:34;93040.91;;;5.83;87.73
56330;BME280;42236;48.058;10.632;2024-02-23T13:05:20;93039.84;;;5.87;88.50
56330;BME280;42236;48.058;10.632;2024-02-23T13:08:05;93031.13;;;5.90;87.45
56330;BME280;42236;48.058;10.632;2024-02-23T13:11:13;93032.22;;;5.89;85.93
56330;BME280;42236;48.058;10.632;2024-02-23T13:14:01;93039.13;;;5.90;87.13
56330;BME280;42236;48.058;10.632;2024-02-23T13:16:47;93032.31;;;5.93;86.94
56330;BME280;42236;48.058;10.632;2024-02-23T13:19:33;93031.19;;;5.94;86.36
56330;BME280;42236;48.058;10.632;2024-02-23T13:22:19;93027.72;;;5.93;86.75
56330;BME280;42236;48.058;10.632;2024-02-23T13:25:08;93023.50;;;5.92;84.44
56330;BME280;42236;48.058;10.632;2024-02-23T13:27:54;93026.53;;;5.91;85.73
56330;BME280;42236;48.058;10.632;2024-02-23T13:30:39;93003.22;;;5.91;84.25
56330;BME280;42236;48.058;10.632;2024-02-23T13:33:25;92986.50;;;5.94;85.08
56330;BME280;42236;48.058;10.632;2024-02-23T13:36:11;93002.56;;;5.94;82.68
56330;BME280;42236;48.058;10.632;2024-02-23T13:39:03;92998.28;;;5.93;83.84
56330;BME280;42236;48.058;10.632;2024-02-23T13:41:52;92990.72;;;5.95;83.37
56330;BME280;42236;48.058;10.632;2024-02-23T13:44:41;92971.53;;;5.93;81.87
56330;BME280;42236;48.058;10.632;2024-02-23T13:47:29;92957.06;;;5.94;80.68
56330;BME280;42236;48.058;10.632;2024-02-23T13:50:15;92992.94;;;5.93;79.97
56330;BME280;42236;48.058;10.632;2024-02-23T13:53:01;93010.41;;;5.87;80.36
56330;BME280;42236;48.058;10.632;2024-02-23T13:55:47;93014.91;;;5.83;79.41
56330;BME280;42236;48.058;10.632;2024-02-23T13:58:33;93010.25;;;5.80;80.67
56330;BME280;42236;48.058;10.632;2024-02-23T14:01:18;92992.63;;;5.79;79.79
56330;BME280;42236;48.058;10.632;2024-02-23T14:04:09;93005.88;;;5.72;78.31
56330;BME280;42236;48.058;10.632;2024-02-23T14:06:58;93018.81;;;5.70;80.26
56330;BME280;42236;48.058;10.632;2024-02-23T14:09:49;93019.09;;;5.65;78.53
56330;BME280;42236;48.058;10.632;2024-02-23T14:12:35;93017.13;;;5.62;78.65
56330;BME280;42236;48.058;10.632;2024-02-23T14:15:24;93005.22;;;5.59;79.20
56330;BME280;42236;48.058;10.632;2024-02-23T14:18:10;92980.72;;;5.57;79.00
56330;BME280;42236;48.058;10.632;2024-02-23T14:20:57;92975.09;;;5.62;79.57
56330;BME280;42236;48.058;10.632;2024-02-23T14:23:42;92975.25;;;5.69;79.92
56330;BME280;42236;48.058;10.632;2024-02-23T14:26:49;93001.03;;;5.77;77.54
56330;BME280;42236;48.058;10.632;2024-02-23T14:30:02;93029.66;;;5.77;79.19
56330;BME280;42236;48.058;10.632;2024-02-23T14:32:50;93027.00;;;5.77;78.61
56330;BME280;42236;48.058;10.632;2024-02-23T14:35:36;93014.75;;;5.76;79.03
56330;BME280;42236;48.058;10.632;2024-02-23T14:38:22;93017.00;;;5.74;77.67